Time;durP1;ratioP1;P1;durP2;ratioP2;P2;SDS_P1;SDS_P2;PMS_P1;PMS_P2;Temp;Humidity;BMP_temperature;BMP_pressure;BME280_temperature;BME280_humidity;BME280_pressure;Samples;Min_cycle;Max_cycle;Signal;HPM_P1;HPM_P2
2021/10/02 00:34:17;;;;;;;15.95;8.77;;;;;;;-145.50;100.00;65435.88;4981676;28;20435;-63
2021/10/02 00:44:53;;;;;;;14.88;9.98;;;;;;;14.14;100.00;101180.00;4986517;28;20057;-62
2021/10/02 00:47:21;;;;;;;;;;;;;;;15.00;100.00;101178.81;4993752;28;20076;-61
2021/10/02 00:49:55;;;;;;;14.13;8.95;;;;;;;15.00;100.00;108016.44;4981753;28;19933;-62
2021/10/02 00:53:07;;;;;;;17.65;10.25;;;;;;;-145.50;100.00;65435.88;4994536;28;20053;-62
2021/10/02 00:56:32;;;;;;;14.57;9.13;;;;;;;-145.50;100.00;65435.88;4983918;28;20054;-61
2021/10/02 00:59:31;;;;;;;14.93;10.27;;;;;;;-145.50;100.00;65435.88;4992630;28;20714;-62
2021/10/02 01:02:32;;;;;;;19.92;10.43;;;;;;;-145.50;100.00;65435.88;4994115;28;20072;-63
2021/10/02 01:05:40;;;;;;;15.00;10.23;;;;;;;-145.50;100.00;65435.88;4988849;28;20050;-63
2021/10/02 01:08:42;;;;;;;23.33;11.95;;;;;;;-145.50;100.00;65435.88;4985676;28;20064;-63
2021/10/02 01:11:48;;;;;;;22.05;10.95;;;;;;;-145.50;63.53;65435.88;4993620;28;20062;-63
2021/10/02 01:15:02;;;;;;;16.58;10.05;;;;;;;-145.50;100.00;65435.88;4993615;28;20049;-61
2021/10/02 01:18:46;;;;;;;18.17;10.82;;;;;;;-145.50;100.00;65435.88;4980942;28;20054;-61
2021/10/02 01:22:08;;;;;;;18.80;10.93;;;;;;;-145.50;100.00;65435.88;4998129;28;20053;-63
2021/10/02 01:25:13;;;;;;;20.75;10.48;;;;;;;-145.50;100.00;65435.88;4980570;28;20050;-63
2021/10/02 01:28:14;;;;;;;18.95;9.45;;;;;;;-145.50;100.00;65435.88;4992373;28;20049;-63
2021/10/02 01:31:49;;;;;;;17.92;9.88;;;;;;;-145.50;100.00;65435.88;4986285;28;20061;-63
2021/10/02 01:34:27;;;;;;;16.33;9.60;;;;;;;-145.50;100.00;65435.88;4988982;28;20047;-62
2021/10/02 01:49:38;;;;;;;19.98;12.88;;;;;;;-145.50;100.00;65435.88;4992317;28;20276;-62
2021/10/02 01:52:30;;;;;;;22.13;11.55;;;;;;;-145.50;100.00;65435.88;4984109;28;20053;-63
2021/10/02 01:55:18;;;;;;;17.13;9.95;;;;;;;-145.50;100.00;65435.88;4988636;28;20518;-62
2021/10/02 01:58:08;;;;;;;19.10;10.77;;;;;;;-145.50;100.00;65435.88;4978182;28;20236;-61
2021/10/02 02:01:02;;;;;;;21.90;10.73;;;;;;;-145.50;100.00;65435.88;4994907;28;20049;-61
2021/10/02 02:03:55;;;;;;;23.88;12.25;;;;;;;-145.50;100.00;65435.88;4987853;28;20070;-61
2021/10/02 02:06:45;;;;;;;20.67;10.43;;;;;;;-145.50;100.00;65435.88;4987884;28;20492;-62
2021/10/02 02:09:37;;;;;;;17.77;10.00;;;;;;;-145.50;100.00;65435.88;4981355;28;20060;-61
2021/10/02 02:12:32;;;;;;;18.60;9.93;;;;;;;-145.50;100.00;65435.88;4984661;28;20053;-61
2021/10/02 02:15:30;;;;;;;27.92;10.70;;;;;;;-145.50;100.00;65435.88;4982316;28;20046;-62
2021/10/02 02:18:23;;;;;;;19.80;10.23;;;;;;;-145.50;100.00;65435.88;4989508;28;20330;-63
2021/10/02 02:21:14;;;;;;;23.70;11.23;;;;;;;-145.50;100.00;65435.88;4979119;28;20054;-62
2021/10/02 02:24:06;;;;;;;20.85;10.80;;;;;;;-145.50;100.00;65435.88;4986312;28;20056;-61
2021/10/02 02:26:53;;;;;;;23.98;11.43;;;;;;;-145.50;100.00;65435.88;4975522;28;20491;-62
2021/10/02 02:29:40;;;;;;;22.08;11.30;;;;;;;-145.50;100.00;65435.88;4986823;28;20069;-63
2021/10/02 02:32:28;;;;;;;24.42;11.50;;;;;;;-145.50;100.00;65435.88;4981248;28;20054;-63
2021/10/02 02:35:17;;;;;;;19.70;10.93;;;;;;;-145.50;100.00;65435.88;4987776;28;20056;-61
2021/10/02 02:38:42;;;;;;;23.02;11.00;;;;;;;-145.50;100.00;65435.88;4979510;28;20070;-59
2021/10/02 02:42:08;;;;;;;23.00;11.25;;;;;;;-145.50;100.00;65435.88;4984357;28;20129;-63
2021/10/02 02:45:34;;;;;;;22.63;11.55;;;;;;;-145.50;100.00;65435.88;4981744;28;20057;-63
2021/10/02 02:49:00;;;;;;;21.80;11.50;;;;;;;-145.50;100.00;65435.88;4989592;28;20382;-62
2021/10/02 02:52:36;;;;;;;27.25;11.65;;;;;;;-145.50;100.00;65435.88;4982806;28;20060;-63
2021/10/02 02:56:14;;;;;;;23.95;12.32;;;;;;;-145.50;100.00;65435.88;4978215;28;20050;-63
2021/10/02 02:59:06;;;;;;;;;;;;;;;-145.50;100.00;65435.88;4996061;28;20061;-63
2021/10/02 03:02:41;;;;;;;21.55;11.45;;;;;;;-145.50;100.00;65435.88;4999977;28;19932;-61
2021/10/02 03:06:10;;;;;;;18.77;11.35;;;;;;;-145.50;100.00;65435.88;4982292;28;20104;-63
2021/10/02 03:09:39;;;;;;;26.88;12.65;;;;;;;-145.50;100.00;65435.88;4989020;28;20057;-62
2021/10/02 03:13:14;;;;;;;25.80;12.13;;;;;;;-145.50;100.00;65435.88;4980604;28;20049;-62
2021/10/02 03:16:13;;;;;;;25.17;11.68;;;;;;;-145.50;100.00;65435.88;4987386;28;20058;-63
2021/10/02 03:19:03;;;;;;;27.90;12.52;;;;;;;-145.50;100.00;65435.88;4979968;28;20088;-60
2021/10/02 03:22:07;;;;;;;24.00;12.95;;;;;;;-145.50;100.00;65435.88;4984620;28;20058;-62
2021/10/02 03:25:01;;;;;;;24.75;13.00;;;;;;;-145.50;100.00;65435.88;4985925;28;20053;-61
2021/10/02 03:27:49;;;;;;;26.27;12.20;;;;;;;-145.50;100.00;65435.88;4991559;28;20066;-60
2021/10/02 03:30:36;;;;;;;27.52;14.07;;;;;;;-145.50;100.00;65435.88;4986250;28;20054;-62
2021/10/02 03:33:24;;;;;;;24.33;11.95;;;;;;;-145.50;100.00;65435.88;4983303;28;20060;-61
2021/10/02 03:36:11;;;;;;;20.38;12.48;;;;;;;-145.50;100.00;65435.88;4983352;28;20057;-62
2021/10/02 03:38:59;;;;;;;23.63;12.07;;;;;;;-145.50;100.00;65435.88;4989168;28;20054;-61
2021/10/02 03:42:04;;;;;;;26.73;11.48;;;;;;;-145.50;100.00;65435.88;4979511;28;20626;-59
2021/10/02 03:44:52;;;;;;;26.65;12.50;;;;;;;-145.50;100.00;65435.88;4997106;28;20049;-61
2021/10/02 03:47:40;;;;;;;24.77;12.38;;;;;;;-145.50;100.00;65435.88;4979123;28;20105;-61
2021/10/02 03:50:30;;;;;;;28.23;13.70;;;;;;;-145.50;100.00;65435.88;4993147;28;20507;-59
2021/10/02 03:53:17;;;;;;;23.88;12.20;;;;;;;-145.50;100.00;65435.88;4981040;28;20054;-60
2021/10/02 03:56:06;;;;;;;26.52;12.30;;;;;;;-145.50;100.00;65435.88;4985235;28;20054;-60
2021/10/02 03:58:53;;;;;;;;;;;;;;;-145.50;100.00;65435.88;4985943;28;20117;-60
2021/10/02 04:01:40;;;;;;;22.92;12.50;;;;;;;-145.50;100.00;65435.88;4986151;28;19972;-62
2021/10/02 04:04:27;;;;;;;24.00;12.23;;;;;;;-145.50;100.00;65435.88;4983621;28;20105;-62
2021/10/02 04:07:14;;;;;;;19.85;11.27;;;;;;;-145.50;100.00;65435.88;4994030;28;20069;-60
2021/10/02 04:10:03;;;;;;;26.70;12.30;;;;;;;-145.50;100.00;65435.88;4995822;28;20058;-62
2021/10/02 04:12:50;;;;;;;22.70;13.35;;;;;;;-145.50;100.00;65435.88;4996180;28;20050;-61
2021/10/02 04:15:37;;;;;;;23.58;13.38;;;;;;;-145.50;100.00;65435.88;4976721;28;20058;-62
2021/10/02 04:18:25;;;;;;;22.27;13.07;;;;;;;-145.50;100.00;65435.88;4991240;28;20061;-62
2021/10/02 04:21:12;;;;;;;29.67;14.48;;;;;;;-145.50;100.00;65435.88;4982629;28;20288;-62
2021/10/02 04:24:00;;;;;;;26.67;12.68;;;;;;;-145.50;100.00;65435.88;4990941;28;20073;-62
2021/10/02 04:26:47;;;;;;;28.65;14.13;;;;;;;-145.50;100.00;65435.88;4993534;28;20061;-61
2021/10/02 04:29:34;;;;;;;23.65;13.73;;;;;;;-145.50;100.00;65435.88;4987254;28;20143;-62
2021/10/02 04:32:21;;;;;;;25.33;14.27;;;;;;;-145.50;100.00;65435.88;4983757;28;20059;-61
2021/10/02 04:35:08;;;;;;;31.08;14.75;;;;;;;-145.50;100.00;65435.88;4991596;28;20057;-62
2021/10/02 04:37:55;;;;;;;24.15;14.23;;;;;;;-145.50;100.00;65435.88;4988310;28;20057;-62
2021/10/02 04:40:42;;;;;;;24.88;14.13;;;;;;;-145.50;100.00;65435.88;4989112;28;20185;-62
2021/10/02 04:43:31;;;;;;;30.70;15.32;;;;;;;-145.50;100.00;65435.88;4984186;28;20057;-61
2021/10/02 04:46:18;;;;;;;29.65;14.32;;;;;;;-145.50;100.00;65435.88;4989737;28;20049;-63
2021/10/02 04:49:09;;;;;;;28.55;14.57;;;;;;;-145.50;100.00;65435.88;4997051;28;20085;-62
2021/10/02 04:51:57;;;;;;;26.90;14.77;;;;;;;-145.50;100.00;65435.88;4996032;28;20064;-63
2021/10/02 04:54:44;;;;;;;21.63;13.17;;;;;;;-145.50;100.00;65435.88;5000697;28;20065;-61
2021/10/02 04:57:31;;;;;;;24.75;14.25;;;;;;;-145.50;100.00;65435.88;4983853;28;20058;-62
2021/10/02 05:00:18;;;;;;;29.92;14.77;;;;;;;-145.50;100.00;65435.88;4986393;28;20513;-62
2021/10/02 05:03:05;;;;;;;27.63;15.50;;;;;;;-145.50;100.00;65435.88;4991564;28;20050;-62
2021/10/02 05:05:52;;;;;;;24.63;13.82;;;;;;;-145.50;100.00;65435.88;4992932;28;20406;-61
2021/10/02 05:08:39;;;;;;;25.02;14.00;;;;;;;-145.50;100.00;65435.88;4988324;28;20058;-62
2021/10/02 05:11:27;;;;;;;28.73;13.90;;;;;;;-145.50;100.00;65435.88;4983598;28;20062;-62
2021/10/02 05:14:14;;;;;;;22.27;13.85;;;;;;;-145.50;100.00;65435.88;4991627;28;20686;-62
2021/10/02 05:17:04;;;;;;;26.27;13.82;;;;;;;-145.50;100.00;65435.88;4994221;28;20061;-60
2021/10/02 05:19:53;;;;;;;23.40;13.13;;;;;;;-145.50;100.00;65435.88;4988715;28;20054;-60
2021/10/02 05:22:40;;;;;;;24.60;12.98;;;;;;;-145.50;100.00;65435.88;4992679;28;20061;-61
2021/10/02 05:25:27;;;;;;;23.42;12.35;;;;;;;-145.50;100.00;65435.88;4979837;28;20543;-59
2021/10/02 05:28:14;;;;;;;25.25;14.05;;;;;;;-145.50;100.00;65435.88;4991981;28;20050;-59
2021/10/02 05:31:01;;;;;;;23.80;13.40;;;;;;;-145.50;100.00;65435.88;4982969;28;20526;-62
2021/10/02 05:33:48;;;;;;;25.98;14.07;;;;;;;-145.50;100.00;65435.88;4990520;28;20061;-62
2021/10/02 05:36:35;;;;;;;24.50;12.10;;;;;;;-145.50;100.00;65435.88;4979729;28;20068;-61
2021/10/02 05:39:23;;;;;;;22.55;12.07;;;;;;;-145.50;100.00;65435.88;4981498;28;20050;-61
2021/10/02 05:42:10;;;;;;;20.95;11.15;;;;;;;-145.50;100.00;65435.88;4986042;28;20057;-62
2021/10/02 05:44:57;;;;;;;20.83;12.00;;;;;;;-145.50;100.00;65435.88;4986455;28;20668;-63
2021/10/02 05:47:45;;;;;;;21.52;12.77;;;;;;;-145.50;100.00;65435.88;4985675;28;20788;-63
2021/10/02 05:50:31;;;;;;;19.83;11.47;;;;;;;-145.50;100.00;65435.88;4986992;28;20063;-63
2021/10/02 05:53:18;;;;;;;17.83;10.38;;;;;;;-145.50;100.00;65435.88;4977618;28;20054;-60
2021/10/02 05:56:05;;;;;;;18.55;10.98;;;;;;;-145.50;100.00;65435.88;4986616;28;20049;-62
2021/10/02 05:58:53;;;;;;;21.73;11.18;;;;;;;-145.50;100.00;65435.88;4981684;28;20058;-62
2021/10/02 06:01:40;;;;;;;20.30;11.67;;;;;;;-145.50;100.00;65435.88;4988208;28;20671;-63
2021/10/02 06:04:28;;;;;;;23.98;12.40;;;;;;;-145.50;100.00;65435.88;4993923;28;20049;-62
2021/10/02 06:07:15;;;;;;;19.63;11.93;;;;;;;-145.50;100.00;65435.88;4986289;28;20050;-60
2021/10/02 06:10:02;;;;;;;20.40;10.75;;;;;;;-145.50;100.00;65435.88;4979465;28;20067;-62
2021/10/02 06:12:52;;;;;;;21.73;11.35;;;;;;;-145.50;100.00;65435.88;4991493;28;20046;-62
2021/10/02 06:15:40;;;;;;;25.83;13.00;;;;;;;-145.50;100.00;65435.88;4991469;28;20578;-62
2021/10/02 06:18:27;;;;;;;17.17;10.00;;;;;;;-145.50;100.00;65435.88;4987866;28;20054;-62
2021/10/02 06:21:15;;;;;;;19.67;10.57;;;;;;;-145.50;100.00;65435.88;4977807;28;20845;-61
2021/10/02 06:24:03;;;;;;;24.98;11.88;;;;;;;-145.50;100.00;65435.88;4991236;28;20061;-62
2021/10/02 06:26:52;;;;;;;21.58;10.77;;;;;;;-145.50;100.00;65435.88;4981527;28;20051;-62
2021/10/02 06:29:39;;;;;;;20.90;11.48;;;;;;;-145.50;100.00;65435.88;4987675;28;20513;-62
2021/10/02 06:32:26;;;;;;;19.38;11.50;;;;;;;-145.50;100.00;65435.88;4983686;28;20061;-62
2021/10/02 06:35:13;;;;;;;20.92;12.02;;;;;;;-145.50;100.00;65435.88;4982106;28;20077;-62
2021/10/02 06:38:00;;;;;;;16.75;10.88;;;;;;;-145.50;100.00;65435.88;4988075;28;20075;-62
2021/10/02 06:40:48;;;;;;;21.38;12.27;;;;;;;-145.50;100.00;65435.88;4996914;28;20563;-62
2021/10/02 06:43:35;;;;;;;20.10;12.73;;;;;;;-145.50;100.00;65435.88;4982781;28;20054;-62
2021/10/02 06:46:22;;;;;;;21.77;12.97;;;;;;;-145.50;100.00;65435.88;4984879;28;20276;-62
2021/10/02 06:49:09;;;;;;;23.85;12.82;;;;;;;-145.50;100.00;65435.88;4986428;28;20060;-62
2021/10/02 06:51:56;;;;;;;23.48;13.10;;;;;;;-145.50;100.00;65435.88;4990513;28;20061;-63
2021/10/02 06:54:44;;;;;;;30.20;12.65;;;;;;;-145.50;100.00;65435.88;4985909;28;20053;-62
2021/10/02 06:57:31;;;;;;;30.63;13.35;;;;;;;-145.50;100.00;65435.88;4990481;28;20715;-62
2021/10/02 07:00:18;;;;;;;33.80;13.50;;;;;;;-145.50;100.00;65435.88;4986860;28;20064;-62
2021/10/02 07:03:06;;;;;;;29.52;13.45;;;;;;;-145.50;100.00;65435.88;4985647;28;20060;-62
2021/10/02 07:05:54;;;;;;;27.90;14.05;;;;;;;-145.50;100.00;65435.88;4986319;28;20046;-62
2021/10/02 07:08:41;;;;;;;26.73;12.43;;;;;;;-145.50;100.00;65435.88;4987856;28;20061;-62
2021/10/02 07:11:28;;;;;;;31.63;13.85;;;;;;;-145.50;100.00;65435.88;4986479;28;20042;-63
2021/10/02 07:14:15;;;;;;;32.33;13.90;;;;;;;-145.50;100.00;65435.88;4978529;28;20840;-63
2021/10/02 07:17:02;;;;;;;28.48;14.18;;;;;;;-145.50;100.00;65435.88;4989214;28;20054;-62
2021/10/02 07:19:50;;;;;;;28.83;15.02;;;;;;;-145.50;100.00;65435.88;4978541;28;20069;-62
2021/10/02 07:22:40;;;;;;;29.13;14.77;;;;;;;-145.50;100.00;65435.88;4987219;28;20065;-62
2021/10/02 07:25:32;;;;;;;29.38;14.73;;;;;;;-145.50;100.00;65435.88;4981814;28;20126;-62
2021/10/02 07:28:18;;;;;;;28.00;14.57;;;;;;;-145.50;100.00;65435.88;4989890;28;20053;-62
2021/10/02 07:31:05;;;;;;;22.90;12.15;;;;;;;-145.50;100.00;65435.88;4987873;28;20054;-63
2021/10/02 07:33:53;;;;;;;23.00;12.73;;;;;;;-145.50;100.00;65435.88;5001707;28;20088;-63
2021/10/02 07:36:40;;;;;;;26.55;13.40;;;;;;;-145.50;100.00;65435.88;4983805;28;20422;-62
2021/10/02 07:39:27;;;;;;;26.40;13.48;;;;;;;-145.50;100.00;65435.88;4983238;28;20054;-61
2021/10/02 07:42:16;;;;;;;27.67;13.63;;;;;;;-145.50;100.00;65435.88;4984610;28;20061;-63
2021/10/02 07:45:06;;;;;;;25.25;14.35;;;;;;;-145.50;100.00;65435.88;4998384;28;20450;-63
2021/10/02 07:47:59;;;;;;;26.13;14.50;;;;;;;-145.50;100.00;65435.88;4986128;28;20058;-63
2021/10/02 07:50:46;;;;;;;29.45;15.52;;;;;;;-145.50;100.00;65435.88;4991371;28;20955;-62
2021/10/02 07:53:34;;;;;;;33.20;15.03;;;;;;;-145.50;100.00;65435.88;4979391;28;20064;-61
2021/10/02 07:56:22;;;;;;;28.35;14.73;;;;;;;-145.50;100.00;65435.88;4991200;28;20404;-62
2021/10/02 07:59:11;;;;;;;28.90;13.65;;;;;;;-145.50;100.00;65435.88;4989111;28;20061;-62
2021/10/02 08:02:05;;;;;;;25.52;13.32;;;;;;;-145.50;100.00;65435.88;4994907;28;20477;-63
2021/10/02 08:04:52;;;;;;;27.02;13.75;;;;;;;-145.50;100.00;65435.88;4984149;28;20054;-63
2021/10/02 08:07:44;;;;;;;25.63;14.05;;;;;;;-145.50;100.00;65435.88;4988765;28;20042;-62
2021/10/02 08:10:32;;;;;;;28.67;13.65;;;;;;;-145.50;100.00;65435.88;4986477;28;20586;-61
2021/10/02 08:13:19;;;;;;;24.85;12.75;;;;;;;-145.50;100.00;65435.88;4989477;28;20061;-61
2021/10/02 08:16:09;;;;;;;26.50;13.68;;;;;;;-145.50;100.00;65435.88;4981961;28;20058;-62
2021/10/02 08:19:00;;;;;;;24.67;12.32;;;;;;;-145.50;100.00;65435.88;4990507;28;20054;-63
2021/10/02 08:21:48;;;;;;;25.63;12.40;;;;;;;-145.50;100.00;65435.88;4981499;28;20062;-62
2021/10/02 08:24:36;;;;;;;;;;;;;;;-145.50;100.00;65435.88;4995816;28;20773;-61
2021/10/02 08:27:27;;;;;;;22.77;11.88;;;;;;;-145.50;100.00;65435.88;4991991;28;19925;-62
2021/10/02 08:30:16;;;;;;;18.05;10.13;;;;;;;-145.50;100.00;65435.88;4991115;28;20046;-63
2021/10/02 08:33:05;;;;;;;21.00;10.43;;;;;;;-145.50;100.00;65435.88;4980108;28;20050;-62
2021/10/02 08:35:58;;;;;;;20.90;10.77;;;;;;;-145.50;100.00;65435.88;4987660;28;20070;-63
2021/10/02 08:38:45;;;;;;;18.33;10.77;;;;;;;-145.50;100.00;65435.88;4983008;28;20615;-60
2021/10/02 08:41:51;;;;;;;21.92;10.00;;;;;;;-145.50;100.00;65435.88;4992403;28;20054;-61
2021/10/02 08:44:42;;;;;;;22.15;10.20;;;;;;;-145.50;100.00;65435.88;4982844;28;20125;-63
2021/10/02 08:47:30;;;;;;;20.83;9.75;;;;;;;-145.50;100.00;65435.88;4993787;28;20060;-62
2021/10/02 08:50:20;;;;;;;23.63;10.43;;;;;;;-145.50;100.00;65435.88;4979257;28;20076;-62
2021/10/02 08:53:08;;;;;;;22.80;9.27;;;;;;;-145.50;100.00;65435.88;4990199;28;20056;-62
2021/10/02 08:55:56;;;;;;;16.73;8.88;;;;;;;-145.50;100.00;65435.88;4984233;28;20054;-63
2021/10/02 08:58:46;;;;;;;19.15;9.50;;;;;;;-145.50;100.00;65435.88;4988632;28;20062;-62
2021/10/02 09:01:34;;;;;;;24.05;8.98;;;;;;;-145.50;100.00;65435.88;4982912;28;20050;-61
2021/10/02 09:04:21;;;;;;;;;;;;;;;-145.50;100.00;65435.88;4985173;28;20065;-63
2021/10/02 09:07:08;;;;;;;17.40;9.13;;;;;;;-145.50;100.00;65435.88;4991267;28;20421;-63
2021/10/02 09:09:55;;;;;;;13.48;8.43;;;;;;;-145.50;100.00;65435.88;4990993;28;20410;-63
2021/10/02 09:12:44;;;;;;;21.90;9.50;;;;;;;-145.50;100.00;65435.88;4993398;28;20058;-62
2021/10/02 09:15:33;;;;;;;18.20;10.40;;;;;;;-145.50;100.00;65435.88;4990482;28;20553;-62
2021/10/02 09:18:23;;;;;;;18.17;10.50;;;;;;;-145.50;100.00;65435.88;4979629;28;20426;-62
2021/10/02 09:21:24;;;;;;;21.92;10.63;;;;;;;-145.50;100.00;65435.88;4991534;28;20050;-63
2021/10/02 09:24:24;;;;;;;18.02;10.23;;;;;;;-145.50;100.00;65435.88;4982334;28;20046;-63
2021/10/02 09:27:16;;;;;;;20.05;9.32;;;;;;;-145.50;100.00;65435.88;4993690;28;20062;-63
2021/10/02 09:30:18;;;;;;;16.75;9.60;;;;;;;-145.50;100.00;65435.88;4978578;28;20050;-64
2021/10/02 09:33:09;;;;;;;16.15;8.75;;;;;;;-145.50;100.00;65435.88;4986624;28;20054;-63
2021/10/02 09:35:58;;;;;;;14.63;7.20;;;;;;;-145.50;100.00;65435.88;4985395;28;20046;-62
2021/10/02 09:38:48;;;;;;;14.95;7.35;;;;;;;-145.50;100.00;65435.88;4987567;28;20054;-61
2021/10/02 09:41:45;;;;;;;21.58;8.55;;;;;;;-145.50;100.00;65435.88;4987813;28;20058;-63
2021/10/02 09:44:41;;;;;;;15.65;7.60;;;;;;;-145.50;100.00;65435.88;4982147;28;20554;-63
2021/10/02 09:47:34;;;;;;;17.70;7.93;;;;;;;-145.50;100.00;65435.88;4979709;28;20471;-63
2021/10/02 09:50:27;;;;;;;13.25;7.00;;;;;;;-145.50;100.00;65435.88;4989939;28;20064;-63
2021/10/02 09:53:21;;;;;;;17.38;7.72;;;;;;;-145.50;100.00;65435.88;4986076;28;20741;-63
2021/10/02 09:56:10;;;;;;;16.60;7.40;;;;;;;-145.50;100.00;65435.88;4994191;28;20045;-63
2021/10/02 09:58:58;;;;;;;19.52;6.97;;;;;;;-145.50;100.00;65435.88;4988457;28;20065;-64
2021/10/02 10:01:46;;;;;;;16.38;6.40;;;;;;;-145.50;100.00;65435.88;4990513;28;20590;-63
2021/10/02 10:04:48;;;;;;;18.63;6.95;;;;;;;-145.50;100.00;65435.88;4983342;28;20131;-62
2021/10/02 10:07:36;;;;;;;15.90;6.17;;;;;;;-145.50;100.00;65435.88;4996576;28;20064;-62
2021/10/02 10:10:28;;;;;;;13.10;6.43;;;;;;;-145.50;100.00;65435.88;4980007;28;21632;-62
2021/10/02 10:13:19;;;;;;;13.48;6.30;;;;;;;-145.50;100.00;65435.88;4992540;28;20086;-64
2021/10/02 10:16:12;;;;;;;12.90;6.60;;;;;;;-145.50;100.00;65435.88;4980204;28;20054;-64
2021/10/02 10:19:14;;;;;;;13.70;6.80;;;;;;;-145.50;100.00;65435.88;4991721;28;20054;-64
2021/10/02 10:22:07;;;;;;;18.45;6.80;;;;;;;-145.50;100.00;65435.88;4984990;28;20523;-64
2021/10/02 10:24:57;;;;;;;11.63;6.65;;;;;;;-145.50;100.00;65435.88;4991062;28;20157;-63
2021/10/02 10:27:57;;;;;;;14.40;6.55;;;;;;;-145.50;100.00;65435.88;4990558;28;20050;-63
2021/10/02 10:30:47;;;;;;;13.77;6.50;;;;;;;-145.50;100.00;65435.88;4992264;28;20145;-63
2021/10/02 10:33:34;;;;;;;10.55;5.50;;;;;;;-145.50;100.00;65435.88;4988798;28;20058;-64
2021/10/02 10:36:24;;;;;;;10.90;5.03;;;;;;;-145.50;100.00;65435.88;4992681;28;20054;-64
2021/10/02 10:39:11;;;;;;;8.30;4.80;;;;;;;-145.50;100.00;65435.88;4982320;28;20069;-64
2021/10/02 10:41:59;;;;;;;7.50;4.00;;;;;;;-145.50;100.00;65435.88;4989826;28;20053;-64
2021/10/02 10:44:46;;;;;;;7.47;3.63;;;;;;;-145.50;100.00;65435.88;4991020;28;20079;-64
2021/10/02 10:47:34;;;;;;;8.25;4.05;;;;;;;-145.50;100.00;65435.88;4992137;28;20082;-64
2021/10/02 10:50:20;;;;;;;8.10;3.00;;;;;;;-145.50;100.00;65435.88;4985503;28;20052;-63
2021/10/02 10:53:08;;;;;;;6.07;3.67;;;;;;;-145.50;100.00;65435.88;4989140;28;20189;-64
2021/10/02 10:56:40;;;;;;;9.30;3.30;;;;;;;-145.50;100.00;65435.88;4981875;28;20054;-64
2021/10/02 10:59:48;;;;;;;9.80;3.20;;;;;;;-145.50;100.00;65435.88;4995605;28;20367;-64
2021/10/02 11:03:37;;;;;;;9.95;3.42;;;;;;;-145.50;100.00;65435.88;4988614;28;20053;-64
2021/10/02 11:07:04;;;;;;;6.47;3.17;;;;;;;-145.50;100.00;65435.88;4979750;28;20047;-64
2021/10/02 11:14:08;;;;;;;5.45;2.40;;;;;;;-145.50;100.00;65435.88;4988507;28;20064;-64
2021/10/02 11:17:35;;;;;;;6.78;2.53;;;;;;;-145.50;100.00;65435.88;4995279;28;20047;-64
2021/10/02 11:21:05;;;;;;;;;;;;;;;-145.50;100.00;65435.88;4986967;28;20122;-64
2021/10/02 11:24:48;;;;;;;6.03;2.30;;;;;;;-145.50;100.00;65435.88;4987332;28;19922;-64
2021/10/02 11:28:21;;;;;;;4.57;2.13;;;;;;;-145.50;100.00;65435.88;4992094;28;20054;-64
2021/10/02 11:31:51;;;;;;;6.93;2.38;;;;;;;-145.50;100.00;65435.88;4989202;28;20057;-62
2021/10/02 11:35:36;;;;;;;4.18;2.40;;;;;;;-145.50;100.00;65435.88;4986308;28;20158;-64
2021/10/02 11:39:12;;;;;;;4.82;2.35;;;;;;;-145.50;100.00;65435.88;4997842;28;20049;-63
2021/10/02 11:43:06;;;;;;;11.73;2.88;;;;;;;-145.50;100.00;65435.88;4990979;28;20046;-64
2021/10/02 11:46:32;;;;;;;4.18;2.40;;;;;;;-145.50;100.00;65435.88;4999408;28;20057;-64
2021/10/02 11:50:30;;;;;;;5.95;2.83;;;;;;;-145.50;100.00;65435.88;4999605;28;20050;-64
2021/10/02 11:54:07;;;;;;;4.13;2.30;;;;;;;-145.50;100.00;65435.88;4977108;28;20455;-64
2021/10/02 11:57:32;;;;;;;6.53;2.40;;;;;;;-145.50;100.00;65435.88;4994706;28;20149;-64
2021/10/02 12:01:02;;;;;;;5.95;2.78;;;;;;;-145.50;100.00;65435.88;4987494;28;20064;-64
2021/10/02 12:04:28;;;;;;;5.72;1.80;;;;;;;-145.50;100.00;65435.88;4979888;28;20050;-63
2021/10/02 12:07:53;;;;;;;4.50;1.77;;;;;;;-145.50;100.00;65435.88;5000970;28;20046;-64
2021/10/02 12:11:19;;;;;;;4.47;2.10;;;;;;;-145.50;100.00;65435.88;4987773;28;20361;-64
2021/10/02 12:14:54;;;;;;;5.57;2.30;;;;;;;-145.50;100.00;65435.88;4991424;28;20054;-64
2021/10/02 12:18:19;;;;;;;5.20;2.13;;;;;;;-145.50;100.00;65435.88;4989832;28;20061;-65
2021/10/02 12:21:46;;;;;;;3.58;2.05;;;;;;;-145.50;100.00;65435.88;4992185;28;20407;-64
2021/10/02 12:25:26;;;;;;;7.85;2.20;;;;;;;-145.50;100.00;65435.88;4994657;28;20057;-65
2021/10/02 12:28:57;;;;;;;5.13;2.60;;;;;;;-145.50;100.00;65435.88;4999015;28;20129;-64
2021/10/02 12:32:38;;;;;;;5.13;2.17;;;;;;;-145.50;100.00;65435.88;4992013;28;20062;-64
2021/10/02 12:36:03;;;;;;;6.40;2.33;;;;;;;-145.50;100.00;65435.88;4995218;28;20046;-64
2021/10/02 12:39:42;;;;;;;4.03;2.30;;;;;;;-145.50;100.00;65435.88;4995546;28;20043;-64
2021/10/02 12:43:08;;;;;;;4.45;1.77;;;;;;;-145.50;100.00;65435.88;5000115;28;20050;-63
2021/10/02 12:46:33;;;;;;;5.53;2.40;;;;;;;-145.50;100.00;65435.88;4988919;28;20054;-64
2021/10/02 12:49:59;;;;;;;4.93;2.22;;;;;;;-145.50;100.00;65435.88;4990960;28;20561;-63
2021/10/02 12:53:25;;;;;;;4.10;1.98;;;;;;;-145.50;100.00;65435.88;4992591;28;20056;-64
2021/10/02 12:56:57;;;;;;;4.65;1.73;;;;;;;-145.50;100.00;65435.88;4991847;28;20053;-64
2021/10/02 13:00:32;;;;;;;4.57;2.08;;;;;;;-145.50;100.00;65435.88;4992382;28;20054;-64
2021/10/02 13:03:59;;;;;;;3.00;1.65;;;;;;;-145.50;100.00;65435.88;5003810;28;20063;-63
2021/10/02 13:06:47;;;;;;;5.50;1.80;;;;;;;-145.50;100.00;65435.88;4989053;28;20045;-63
2021/10/02 13:09:52;;;;;;;5.13;1.67;;;;;;;-145.50;100.00;65435.88;4994278;28;20066;-64
2021/10/02 13:13:22;;;;;;;3.55;1.90;;;;;;;-145.50;100.00;65435.88;4992073;28;20046;-64
2021/10/02 13:16:57;;;;;;;2.92;1.60;;;;;;;-145.50;100.00;65435.88;5003054;28;20630;-64
2021/10/02 13:20:17;;;;;;;6.55;1.75;;;;;;;-145.50;100.00;65435.88;4990387;28;20698;-65
2021/10/02 13:23:43;;;;;;;3.63;1.75;;;;;;;-145.50;100.00;65435.88;4993485;28;20475;-64
2021/10/02 13:27:10;;;;;;;2.97;1.60;;;;;;;-145.50;100.00;65435.88;4998592;28;20060;-64
2021/10/02 13:30:35;;;;;;;3.35;1.60;;;;;;;-145.50;100.00;65435.88;4989303;28;20590;-64
2021/10/02 13:34:06;;;;;;;3.90;1.88;;;;;;;-145.50;100.00;65435.88;4994743;28;20043;-64
2021/10/02 13:37:42;;;;;;;5.15;1.60;;;;;;;-145.50;100.00;65435.88;4985773;28;20061;-64
2021/10/02 13:41:16;;;;;;;2.75;1.42;;;;;;;-145.50;100.00;65435.88;4987735;28;20054;-64
2021/10/02 13:44:55;;;;;;;2.33;1.50;;;;;;;-145.50;100.00;65435.88;4994646;28;20440;-64
2021/10/02 13:48:26;;;;;;;5.05;1.90;;;;;;;-145.50;100.00;65435.88;4991805;28;20042;-64
2021/10/02 13:51:52;;;;;;;3.35;1.58;;;;;;;-145.50;100.00;65435.88;4990762;28;20041;-64
2021/10/02 13:55:17;;;;;;;2.72;1.50;;;;;;;-145.50;100.00;65435.88;4991871;28;20077;-63
2021/10/02 13:58:43;;;;;;;3.25;1.92;;;;;;;-145.50;100.00;65435.88;4989393;28;20056;-64
2021/10/02 14:02:08;;;;;;;5.70;1.65;;;;;;;-145.50;100.00;65435.88;5004499;28;20052;-64
2021/10/02 14:05:34;;;;;;;2.97;1.70;;;;;;;-145.50;100.00;65435.88;4982458;28;20137;-64
2021/10/02 14:09:00;;;;;;;2.75;1.70;;;;;;;-145.50;100.00;65435.88;4990168;28;20503;-64
2021/10/02 14:12:25;;;;;;;2.25;1.70;;;;;;;-145.50;100.00;65435.88;4993477;28;20057;-65
2021/10/02 14:15:50;;;;;;;5.45;1.88;;;;;;;-145.50;100.00;65435.88;4984923;28;20526;-64
2021/10/02 14:19:15;;;;;;;3.33;1.77;;;;;;;-145.50;100.00;65435.88;5002943;28;20069;-63
2021/10/02 14:22:41;;;;;;;2.22;1.70;;;;;;;-145.50;100.00;65435.88;4982682;28;20057;-64
2021/10/02 14:26:06;;;;;;;3.75;2.42;;;;;;;-145.50;100.00;65435.88;4995351;28;20057;-64